sensor_id;sensor_type;location;lat;lon;timestamp;P1;durP1;ratioP1;P2;durP2;ratioP2
6862;SDS011;3470;48.738;9.616;2023-02-13T00:02:01;56.03;;;26.27;;
6862;SDS011;3470;48.738;9.616;2023-02-13T00:04:27;51.50;;;25.47;;
6862;SDS011;3470;48.738;9.616;2023-02-13T00:06:52;53.90;;;27.07;;
6862;SDS011;3470;48.738;9.616;2023-02-13T00:09:18;51.63;;;27.40;;
6862;SDS011;3470;48.738;9.616;2023-02-13T00:11:43;54.17;;;26.63;;
6862;SDS011;3470;48.738;9.616;2023-02-13T00:14:09;60.40;;;26.57;;
6862;SDS011;3470;48.738;9.616;2023-02-13T00:16:35;52.97;;;25.30;;
6862;SDS011;3470;48.738;9.616;2023-02-13T13:15:08;9.45;;;7.57;;
6862;SDS011;3470;48.738;9.616;2023-02-13T13:17:57;8.40;;;7.50;;
6862;SDS011;3470;48.738;9.616;2023-02-13T13:20:41;8.15;;;7.32;;
6862;SDS011;3470;48.738;9.616;2023-02-13T13:25:50;8.60;;;7.60;;
6862;SDS011;3470;48.738;9.616;2023-02-13T13:28:23;8.45;;;7.22;;
6862;SDS011;3470;48.738;9.616;2023-02-13T13:30:53;8.48;;;7.45;;
6862;SDS011;3470;48.738;9.616;2023-02-13T13:33:21;9.18;;;8.15;;
6862;SDS011;3470;48.738;9.616;2023-02-13T13:44:01;11.18;;;8.82;;
6862;SDS011;3470;48.738;9.616;2023-02-13T13:52:19;9.40;;;8.40;;
6862;SDS011;3470;48.738;9.616;2023-02-13T13:54:57;8.57;;;7.60;;
6862;SDS011;3470;48.738;9.616;2023-02-13T14:02:37;11.05;;;8.93;;
6862;SDS011;3470;48.738;9.616;2023-02-13T14:05:18;8.63;;;7.72;;
6862;SDS011;3470;48.738;9.616;2023-02-13T14:07:45;10.55;;;8.45;;
6862;SDS011;3470;48.738;9.616;2023-02-13T14:16:07;9.38;;;8.38;;
6862;SDS011;3470;48.738;9.616;2023-02-13T14:20:40;9.73;;;8.60;;
6862;SDS011;3470;48.738;9.616;2023-02-13T14:28:43;11.67;;;9.07;;
6862;SDS011;3470;48.738;9.616;2023-02-13T14:31:35;12.13;;;9.63;;
6862;SDS011;3470;48.738;9.616;2023-02-13T14:34:05;11.47;;;9.20;;
6862;SDS011;3470;48.738;9.616;2023-02-13T14:36:45;10.00;;;8.97;;
6862;SDS011;3470;48.738;9.616;2023-02-13T14:44:19;10.67;;;8.27;;
6862;SDS011;3470;48.738;9.616;2023-02-13T14:46:56;10.10;;;8.80;;
6862;SDS011;3470;48.738;9.616;2023-02-13T14:49:26;11.70;;;9.03;;
6862;SDS011;3470;48.738;9.616;2023-02-13T14:51:55;11.63;;;9.37;;
6862;SDS011;3470;48.738;9.616;2023-02-13T14:57:16;12.23;;;9.67;;
6862;SDS011;3470;48.738;9.616;2023-02-13T14:59:44;11.20;;;8.70;;
6862;SDS011;3470;48.738;9.616;2023-02-13T15:02:26;10.57;;;8.73;;
6862;SDS011;3470;48.738;9.616;2023-02-13T15:07:28;10.93;;;9.03;;
6862;SDS011;3470;48.738;9.616;2023-02-13T15:10:22;11.97;;;8.90;;
6862;SDS011;3470;48.738;9.616;2023-02-13T15:13:00;11.63;;;9.00;;
6862;SDS011;3470;48.738;9.616;2023-02-13T15:15:27;11.23;;;8.63;;
6862;SDS011;3470;48.738;9.616;2023-02-13T15:18:03;11.37;;;9.87;;
6862;SDS011;3470;48.738;9.616;2023-02-13T15:20:34;12.07;;;9.40;;
6862;SDS011;3470;48.738;9.616;2023-02-13T15:23:03;11.57;;;9.77;;
6862;SDS011;3470;48.738;9.616;2023-02-13T15:28:03;12.33;;;9.63;;
6862;SDS011;3470;48.738;9.616;2023-02-13T15:30:31;11.80;;;9.67;;
6862;SDS011;3470;48.738;9.616;2023-02-13T15:33:01;11.80;;;9.63;;
6862;SDS011;3470;48.738;9.616;2023-02-13T15:35:29;11.60;;;9.73;;
6862;SDS011;3470;48.738;9.616;2023-02-13T15:37:57;11.77;;;9.43;;
6862;SDS011;3470;48.738;9.616;2023-02-13T15:40:25;13.20;;;10.20;;
6862;SDS011;3470;48.738;9.616;2023-02-13T15:42:56;15.03;;;10.33;;
6862;SDS011;3470;48.738;9.616;2023-02-13T15:45:23;13.20;;;10.37;;
6862;SDS011;3470;48.738;9.616;2023-02-13T15:47:50;14.27;;;10.43;;
6862;SDS011;3470;48.738;9.616;2023-02-13T15:52:48;13.73;;;10.50;;
6862;SDS011;3470;48.738;9.616;2023-02-13T15:55:22;14.43;;;9.97;;
6862;SDS011;3470;48.738;9.616;2023-02-13T15:57:50;14.37;;;10.43;;
6862;SDS011;3470;48.738;9.616;2023-02-13T16:00:28;14.07;;;10.47;;
6862;SDS011;3470;48.738;9.616;2023-02-13T16:03:00;13.97;;;10.23;;
6862;SDS011;3470;48.738;9.616;2023-02-13T16:05:31;14.57;;;10.17;;
6862;SDS011;3470;48.738;9.616;2023-02-13T16:08:19;14.47;;;11.00;;
6862;SDS011;3470;48.738;9.616;2023-02-13T16:14:11;16.50;;;11.27;;
6862;SDS011;3470;48.738;9.616;2023-02-13T16:21:51;22.20;;;13.30;;
6862;SDS011;3470;48.738;9.616;2023-02-13T16:24:18;22.37;;;14.03;;
6862;SDS011;3470;48.738;9.616;2023-02-13T16:26:45;21.00;;;13.43;;
6862;SDS011;3470;48.738;9.616;2023-02-13T16:29:17;21.93;;;13.63;;
6862;SDS011;3470;48.738;9.616;2023-02-13T16:31:44;26.23;;;13.27;;
6862;SDS011;3470;48.738;9.616;2023-02-13T16:34:14;21.80;;;13.13;;
6862;SDS011;3470;48.738;9.616;2023-02-13T16:36:49;20.17;;;13.77;;
6862;SDS011;3470;48.738;9.616;2023-02-13T16:39:18;23.87;;;13.77;;
6862;SDS011;3470;48.738;9.616;2023-02-13T16:41:52;22.93;;;13.40;;
6862;SDS011;3470;48.738;9.616;2023-02-13T16:44:25;22.10;;;14.33;;
6862;SDS011;3470;48.738;9.616;2023-02-13T16:49:30;23.93;;;14.53;;
6862;SDS011;3470;48.738;9.616;2023-02-13T16:54:57;23.97;;;14.43;;
6862;SDS011;3470;48.738;9.616;2023-02-13T16:57:30;21.00;;;13.50;;
6862;SDS011;3470;48.738;9.616;2023-02-13T17:02:36;23.60;;;14.97;;
6862;SDS011;3470;48.738;9.616;2023-02-13T17:12:48;25.93;;;14.37;;
6862;SDS011;3470;48.738;9.616;2023-02-13T17:15:16;25.63;;;15.03;;
6862;SDS011;3470;48.738;9.616;2023-02-13T17:17:44;29.57;;;15.83;;
6862;SDS011;3470;48.738;9.616;2023-02-13T17:20:29;28.83;;;14.87;;
6862;SDS011;3470;48.738;9.616;2023-02-13T17:22:57;29.87;;;16.27;;
6862;SDS011;3470;48.738;9.616;2023-02-13T17:25:25;27.17;;;15.33;;
6862;SDS011;3470;48.738;9.616;2023-02-13T17:27:52;26.87;;;14.77;;
6862;SDS011;3470;48.738;9.616;2023-02-13T17:30:24;24.60;;;14.70;;
6862;SDS011;3470;48.738;9.616;2023-02-13T17:32:56;27.10;;;15.10;;
6862;SDS011;3470;48.738;9.616;2023-02-13T17:35:23;28.57;;;14.70;;
6862;SDS011;3470;48.738;9.616;2023-02-13T17:37:49;28.27;;;16.00;;
6862;SDS011;3470;48.738;9.616;2023-02-13T17:40:19;32.97;;;17.23;;
6862;SDS011;3470;48.738;9.616;2023-02-13T17:42:47;28.70;;;16.43;;
6862;SDS011;3470;48.738;9.616;2023-02-13T17:45:16;31.03;;;16.67;;
6862;SDS011;3470;48.738;9.616;2023-02-13T17:47:43;31.30;;;16.10;;
6862;SDS011;3470;48.738;9.616;2023-02-13T17:50:09;33.17;;;17.57;;
6862;SDS011;3470;48.738;9.616;2023-02-13T17:52:35;30.23;;;16.77;;
6862;SDS011;3470;48.738;9.616;2023-02-13T17:55:01;29.40;;;17.73;;
6862;SDS011;3470;48.738;9.616;2023-02-13T17:57:27;30.83;;;17.40;;
6862;SDS011;3470;48.738;9.616;2023-02-13T17:59:53;38.00;;;18.40;;
6862;SDS011;3470;48.738;9.616;2023-02-13T18:02:20;30.93;;;17.27;;
6862;SDS011;3470;48.738;9.616;2023-02-13T18:04:47;35.07;;;17.07;;
6862;SDS011;3470;48.738;9.616;2023-02-13T18:07:15;35.43;;;17.97;;
6862;SDS011;3470;48.738;9.616;2023-02-13T18:09:42;33.70;;;17.10;;
6862;SDS011;3470;48.738;9.616;2023-02-13T18:12:12;30.47;;;16.43;;
6862;SDS011;3470;48.738;9.616;2023-02-13T18:14:39;33.00;;;16.67;;
6862;SDS011;3470;48.738;9.616;2023-02-13T18:17:05;30.93;;;17.87;;
6862;SDS011;3470;48.738;9.616;2023-02-13T18:19:31;33.70;;;17.63;;
6862;SDS011;3470;48.738;9.616;2023-02-13T18:21:57;30.10;;;17.93;;
6862;SDS011;3470;48.738;9.616;2023-02-13T18:24:26;36.93;;;18.73;;
6862;SDS011;3470;48.738;9.616;2023-02-13T18:26:53;32.93;;;17.50;;
6862;SDS011;3470;48.738;9.616;2023-02-13T18:29:19;31.67;;;18.07;;
6862;SDS011;3470;48.738;9.616;2023-02-13T18:31:45;35.90;;;18.53;;
6862;SDS011;3470;48.738;9.616;2023-02-13T18:34:10;37.00;;;18.73;;
6862;SDS011;3470;48.738;9.616;2023-02-13T18:36:36;41.30;;;19.83;;
6862;SDS011;3470;48.738;9.616;2023-02-13T18:39:02;39.00;;;19.00;;
6862;SDS011;3470;48.738;9.616;2023-02-13T18:41:28;36.37;;;19.27;;
6862;SDS011;3470;48.738;9.616;2023-02-13T18:43:56;39.17;;;20.40;;
6862;SDS011;3470;48.738;9.616;2023-02-13T18:46:22;39.20;;;19.53;;
6862;SDS011;3470;48.738;9.616;2023-02-13T18:48:48;36.53;;;18.90;;
6862;SDS011;3470;48.738;9.616;2023-02-13T18:51:14;41.10;;;19.47;;
6862;SDS011;3470;48.738;9.616;2023-02-13T18:53:40;38.90;;;19.60;;
6862;SDS011;3470;48.738;9.616;2023-02-13T18:56:06;39.30;;;21.07;;
6862;SDS011;3470;48.738;9.616;2023-02-13T18:58:32;43.20;;;21.17;;
6862;SDS011;3470;48.738;9.616;2023-02-13T19:01:05;51.10;;;23.40;;
6862;SDS011;3470;48.738;9.616;2023-02-13T19:03:36;40.33;;;20.47;;
6862;SDS011;3470;48.738;9.616;2023-02-13T19:06:05;40.93;;;20.57;;
6862;SDS011;3470;48.738;9.616;2023-02-13T19:08:32;44.10;;;21.80;;
6862;SDS011;3470;48.738;9.616;2023-02-13T19:11:00;47.53;;;22.17;;
6862;SDS011;3470;48.738;9.616;2023-02-13T19:13:30;45.57;;;22.33;;
6862;SDS011;3470;48.738;9.616;2023-02-13T19:16:03;49.20;;;22.97;;
6862;SDS011;3470;48.738;9.616;2023-02-13T19:18:29;47.00;;;22.17;;
6862;SDS011;3470;48.738;9.616;2023-02-13T19:20:58;52.57;;;24.00;;
6862;SDS011;3470;48.738;9.616;2023-02-13T19:23:25;53.77;;;24.10;;
6862;SDS011;3470;48.738;9.616;2023-02-13T19:25:50;48.87;;;24.67;;
6862;SDS011;3470;48.738;9.616;2023-02-13T19:28:16;56.17;;;25.67;;
6862;SDS011;3470;48.738;9.616;2023-02-13T19:30:41;50.03;;;24.73;;
6862;SDS011;3470;48.738;9.616;2023-02-13T19:33:07;53.03;;;25.47;;
6862;SDS011;3470;48.738;9.616;2023-02-13T19:35:33;52.00;;;24.50;;
6862;SDS011;3470;48.738;9.616;2023-02-13T19:37:58;52.67;;;25.33;;
6862;SDS011;3470;48.738;9.616;2023-02-13T19:40:24;60.17;;;26.53;;
6862;SDS011;3470;48.738;9.616;2023-02-13T19:42:49;52.17;;;25.83;;
6862;SDS011;3470;48.738;9.616;2023-02-13T19:45:15;65.07;;;27.07;;
6862;SDS011;3470;48.738;9.616;2023-02-13T19:47:41;60.73;;;26.17;;
6862;SDS011;3470;48.738;9.616;2023-02-13T19:50:07;61.27;;;28.40;;
6862;SDS011;3470;48.738;9.616;2023-02-13T19:52:33;50.67;;;25.87;;
6862;SDS011;3470;48.738;9.616;2023-02-13T19:54:58;55.53;;;26.87;;
6862;SDS011;3470;48.738;9.616;2023-02-13T19:57:25;57.13;;;26.37;;
6862;SDS011;3470;48.738;9.616;2023-02-13T19:59:54;63.80;;;28.27;;
6862;SDS011;3470;48.738;9.616;2023-02-13T20:02:19;65.60;;;28.97;;
6862;SDS011;3470;48.738;9.616;2023-02-13T20:04:46;57.13;;;26.47;;
6862;SDS011;3470;48.738;9.616;2023-02-13T20:07:12;61.60;;;27.23;;
6862;SDS011;3470;48.738;9.616;2023-02-13T20:09:38;60.97;;;28.93;;
6862;SDS011;3470;48.738;9.616;2023-02-13T20:12:05;67.20;;;28.77;;
6862;SDS011;3470;48.738;9.616;2023-02-13T20:14:31;72.00;;;28.60;;
6862;SDS011;3470;48.738;9.616;2023-02-13T20:16:57;60.90;;;28.00;;
6862;SDS011;3470;48.738;9.616;2023-02-13T20:19:23;73.67;;;29.50;;
6862;SDS011;3470;48.738;9.616;2023-02-13T20:21:49;62.23;;;28.67;;
6862;SDS011;3470;48.738;9.616;2023-02-13T20:24:15;60.80;;;28.07;;
6862;SDS011;3470;48.738;9.616;2023-02-13T20:26:41;70.87;;;28.67;;
6862;SDS011;3470;48.738;9.616;2023-02-13T20:29:07;62.30;;;28.63;;
6862;SDS011;3470;48.738;9.616;2023-02-13T20:31:33;63.53;;;28.93;;
6862;SDS011;3470;48.738;9.616;2023-02-13T20:33:59;73.20;;;29.10;;
6862;SDS011;3470;48.738;9.616;2023-02-13T20:36:26;65.67;;;28.10;;
6862;SDS011;3470;48.738;9.616;2023-02-13T20:38:54;70.83;;;27.57;;
6862;SDS011;3470;48.738;9.616;2023-02-13T20:41:25;65.23;;;27.60;;
6862;SDS011;3470;48.738;9.616;2023-02-13T20:43:55;66.30;;;27.43;;
6862;SDS011;3470;48.738;9.616;2023-02-13T20:46:22;61.73;;;28.23;;
6862;SDS011;3470;48.738;9.616;2023-02-13T20:48:48;64.17;;;28.00;;
6862;SDS011;3470;48.738;9.616;2023-02-13T20:51:14;59.73;;;26.57;;
6862;SDS011;3470;48.738;9.616;2023-02-13T20:53:41;60.93;;;26.67;;
6862;SDS011;3470;48.738;9.616;2023-02-13T20:56:13;62.47;;;28.33;;
6862;SDS011;3470;48.738;9.616;2023-02-13T20:58:40;59.60;;;26.00;;
6862;SDS011;3470;48.738;9.616;2023-02-13T21:03:36;61.07;;;27.20;;
6862;SDS011;3470;48.738;9.616;2023-02-13T21:06:01;63.43;;;27.77;;
6862;SDS011;3470;48.738;9.616;2023-02-13T21:08:27;59.67;;;26.17;;
6862;SDS011;3470;48.738;9.616;2023-02-13T21:10:52;63.50;;;26.23;;
6862;SDS011;3470;48.738;9.616;2023-02-13T21:13:23;53.10;;;26.20;;
6862;SDS011;3470;48.738;9.616;2023-02-13T21:15:49;60.50;;;26.73;;
6862;SDS011;3470;48.738;9.616;2023-02-13T21:18:17;57.40;;;26.03;;
6862;SDS011;3470;48.738;9.616;2023-02-13T21:20:43;60.43;;;26.83;;
6862;SDS011;3470;48.738;9.616;2023-02-13T21:23:09;66.00;;;30.43;;
6862;SDS011;3470;48.738;9.616;2023-02-13T21:25:34;63.40;;;27.83;;
6862;SDS011;3470;48.738;9.616;2023-02-13T21:28:03;57.67;;;26.00;;
6862;SDS011;3470;48.738;9.616;2023-02-13T21:30:28;60.13;;;26.67;;
6862;SDS011;3470;48.738;9.616;2023-02-13T21:32:54;60.37;;;28.03;;
6862;SDS011;3470;48.738;9.616;2023-02-13T21:35:19;74.47;;;27.63;;
6862;SDS011;3470;48.738;9.616;2023-02-13T21:37:45;60.73;;;27.00;;
6862;SDS011;3470;48.738;9.616;2023-02-13T21:40:10;60.33;;;27.00;;
6862;SDS011;3470;48.738;9.616;2023-02-13T21:42:36;72.00;;;29.57;;
6862;SDS011;3470;48.738;9.616;2023-02-13T21:45:02;71.10;;;29.73;;
6862;SDS011;3470;48.738;9.616;2023-02-13T21:47:28;65.33;;;28.73;;
6862;SDS011;3470;48.738;9.616;2023-02-13T21:49:53;66.70;;;29.93;;
6862;SDS011;3470;48.738;9.616;2023-02-13T21:52:19;65.97;;;28.53;;
6862;SDS011;3470;48.738;9.616;2023-02-13T21:54:44;58.30;;;27.17;;
6862;SDS011;3470;48.738;9.616;2023-02-13T21:57:10;64.00;;;28.20;;
6862;SDS011;3470;48.738;9.616;2023-02-13T21:59:35;65.87;;;26.77;;
6862;SDS011;3470;48.738;9.616;2023-02-13T22:02:01;63.80;;;27.43;;
6862;SDS011;3470;48.738;9.616;2023-02-13T22:04:26;60.50;;;27.07;;
6862;SDS011;3470;48.738;9.616;2023-02-13T22:06:52;70.40;;;27.03;;
6862;SDS011;3470;48.738;9.616;2023-02-13T22:09:18;67.23;;;28.63;;
6862;SDS011;3470;48.738;9.616;2023-02-13T22:11:45;62.43;;;28.60;;
6862;SDS011;3470;48.738;9.616;2023-02-13T22:14:12;63.50;;;28.20;;
6862;SDS011;3470;48.738;9.616;2023-02-13T22:16:41;60.93;;;27.00;;
6862;SDS011;3470;48.738;9.616;2023-02-13T22:19:09;64.67;;;28.60;;
6862;SDS011;3470;48.738;9.616;2023-02-13T22:21:37;67.87;;;28.40;;
6862;SDS011;3470;48.738;9.616;2023-02-13T22:24:03;68.93;;;28.90;;
6862;SDS011;3470;48.738;9.616;2023-02-13T22:26:33;68.13;;;28.50;;
6862;SDS011;3470;48.738;9.616;2023-02-13T22:29:01;73.90;;;29.57;;
6862;SDS011;3470;48.738;9.616;2023-02-13T22:31:29;72.20;;;28.87;;
6862;SDS011;3470;48.738;9.616;2023-02-13T22:33:55;75.77;;;31.80;;
6862;SDS011;3470;48.738;9.616;2023-02-13T22:36:21;78.43;;;31.83;;
6862;SDS011;3470;48.738;9.616;2023-02-13T22:38:46;72.57;;;30.73;;
6862;SDS011;3470;48.738;9.616;2023-02-13T22:41:14;74.67;;;32.40;;
6862;SDS011;3470;48.738;9.616;2023-02-13T22:43:41;69.93;;;30.70;;
6862;SDS011;3470;48.738;9.616;2023-02-13T22:46:08;75.70;;;30.03;;
6862;SDS011;3470;48.738;9.616;2023-02-13T22:48:40;70.40;;;30.33;;
6862;SDS011;3470;48.738;9.616;2023-02-13T22:51:08;77.57;;;31.07;;
6862;SDS011;3470;48.738;9.616;2023-02-13T22:53:35;76.60;;;29.97;;
6862;SDS011;3470;48.738;9.616;2023-02-13T22:56:01;67.00;;;29.47;;
6862;SDS011;3470;48.738;9.616;2023-02-13T22:58:28;66.40;;;29.57;;
6862;SDS011;3470;48.738;9.616;2023-02-13T23:00:54;72.43;;;29.23;;
6862;SDS011;3470;48.738;9.616;2023-02-13T23:03:20;67.00;;;29.80;;
6862;SDS011;3470;48.738;9.616;2023-02-13T23:05:46;75.03;;;29.43;;
6862;SDS011;3470;48.738;9.616;2023-02-13T23:08:12;69.10;;;28.27;;
6862;SDS011;3470;48.738;9.616;2023-02-13T23:10:38;75.80;;;31.43;;
6862;SDS011;3470;48.738;9.616;2023-02-13T23:13:08;80.37;;;33.43;;
6862;SDS011;3470;48.738;9.616;2023-02-13T23:15:34;81.03;;;33.40;;
6862;SDS011;3470;48.738;9.616;2023-02-13T23:18:01;88.53;;;34.20;;
6862;SDS011;3470;48.738;9.616;2023-02-13T23:20:43;76.10;;;31.37;;
6862;SDS011;3470;48.738;9.616;2023-02-13T23:23:09;75.77;;;31.83;;
6862;SDS011;3470;48.738;9.616;2023-02-13T23:25:36;74.53;;;30.93;;
6862;SDS011;3470;48.738;9.616;2023-02-13T23:28:02;80.33;;;32.30;;
6862;SDS011;3470;48.738;9.616;2023-02-13T23:30:29;77.27;;;31.20;;
6862;SDS011;3470;48.738;9.616;2023-02-13T23:32:55;75.77;;;31.97;;
6862;SDS011;3470;48.738;9.616;2023-02-13T23:35:25;66.17;;;29.20;;
6862;SDS011;3470;48.738;9.616;2023-02-13T23:37:52;72.10;;;29.83;;
6862;SDS011;3470;48.738;9.616;2023-02-13T23:40:18;69.57;;;29.80;;
6862;SDS011;3470;48.738;9.616;2023-02-13T23:42:44;68.00;;;29.63;;
6862;SDS011;3470;48.738;9.616;2023-02-13T23:45:10;73.13;;;30.67;;
6862;SDS011;3470;48.738;9.616;2023-02-13T23:47:36;75.10;;;32.03;;
6862;SDS011;3470;48.738;9.616;2023-02-13T23:50:02;81.30;;;33.57;;
6862;SDS011;3470;48.738;9.616;2023-02-13T23:52:29;77.23;;;30.93;;
6862;SDS011;3470;48.738;9.616;2023-02-13T23:54:54;75.17;;;32.97;;
6862;SDS011;3470;48.738;9.616;2023-02-13T23:57:20;76.87;;;31.63;;
6862;SDS011;3470;48.738;9.616;2023-02-13T23:59:48;88.00;;;34.60;;
